Terminal Aerodrome Forecast
Issued by NWS

Home | Current Version | Previous Version | Text Only | Print | Product List | Glossary On
Versions: 1 2 3 4 5 6 7 8 9 10 11 12 13 14 15
000
FTUS46 KLOX 061700 RRA
TAFPMD
TAF
KPMD 061738Z 0618/0718 23020G30KT P6SM SKC
     FM062200 23025G35KT P6SM SKC
     FM070100 23016G26KT P6SM SKC
     FM070600 22014KT P6SM SKC
     FM071600 22015G25KT P6SM SKC=

USA.gov is the U.S. government's official web portal to all federal, state and local government web resources and services.